Sun Peaks, Canada
Current Conditions -  °F | °C
As of 4:00 PM on Saturday 25 Oct 2014 (Local Time) from CYKA Reporting Station
Broken Clouds Broken Clouds  
Wind Chill: 52°   Ceiling: 15000
Heat Index: 52°   Visibility: 40mi
Dew Point: 37°   Wind: 13mph
Humidity: 58%   Direction: 110°ESE
Pressure: 29.43"   Gusts: 22mph
Location:  50.88°N, 119.92°W
Report Text: CYKA 252300Z 11011G19KT 40SM FEW050 FEW075 BKN150 BKN250 11/03 A2943 RMK CF1AC2AC4CI1 CF TR SLP974 DENSITY ALT 1400FT
Loading
Personal Weather Stations






























Interactive Weather Map
Tropical Storm Tracking
New forecast layout! Learn more

10-Day Weather Forecast

Advertisements
Track Severe Weather on mobile